DHBYE EDDH-EDDH
Flight info
| Callsign | DHBYE |
|---|---|
| Flight time | 1h 28m |
| Altitude | 1111 |
| Route | DCT 5334N01009E DCT AMLUH DCT 5315N01001E DCT 5301N00953E DCT EDHU DCT APNOC DCT EDWK DCT EDWT DCT 5341N00840E DCT RIBSO DCT 5334N00941E DCT |
| Aircraft | EC35/L-SDFGRUY/S |
Departure
| Time | 2026-04-21 18:24 |
|---|---|
| Airport | Hamburg Helmut Schmidt Airport (EDDH) |
Arrival
| Time | 2026-04-21 19:52 |
|---|---|
| Airport | Hamburg Helmut Schmidt Airport (EDDH) |
| Time | Latitude | Longitude | Altitude | Speed | Heading |
|---|---|---|---|---|---|
| 2026-04-21 18:12 | 53.62548 | 9.99402 | 58 ft | 0 kts | 257° |
| 2026-04-21 18:23 | 53.62546 | 9.99394 | 59 ft | 5 kts | 260° |
| 2026-04-21 18:23 | 53.62567 | 9.99338 | 62 ft | 9 kts | 1° |
| 2026-04-21 18:23 | 53.62605 | 9.99480 | 67 ft | 27 kts | 79° |
| 2026-04-21 18:23 | 53.62643 | 9.99820 | 75 ft | 36 kts | 86° |
| 2026-04-21 18:24 | 53.62347 | 10.00233 | 226 ft | 68 kts | 140° |
| 2026-04-21 18:24 | 53.61919 | 10.00718 | 447 ft | 83 kts | 133° |
| 2026-04-21 18:24 | 53.61539 | 10.01548 | 618 ft | 96 kts | 115° |
| 2026-04-21 18:24 | 53.61166 | 10.02513 | 805 ft | 99 kts | 115° |
| 2026-04-21 18:25 | 53.60797 | 10.03493 | 1000 ft | 101 kts | 116° |
| 2026-04-21 18:25 | 53.60375 | 10.04495 | 1170 ft | 106 kts | 117° |
| 2026-04-21 18:25 | 53.59937 | 10.05493 | 1339 ft | 104 kts | 120° |
| 2026-04-21 18:25 | 53.59490 | 10.06455 | 1483 ft | 106 kts | 120° |
| 2026-04-21 18:26 | 53.59017 | 10.07449 | 1506 ft | 113 kts | 120° |
| 2026-04-21 18:26 | 53.58522 | 10.08503 | 1506 ft | 115 kts | 120° |
| 2026-04-21 18:26 | 53.58024 | 10.09568 | 1491 ft | 118 kts | 120° |
| 2026-04-21 18:26 | 53.57523 | 10.10663 | 1509 ft | 115 kts | 118° |
| 2026-04-21 18:27 | 53.57084 | 10.11754 | 1527 ft | 111 kts | 116° |
| 2026-04-21 18:27 | 53.56666 | 10.12891 | 1503 ft | 114 kts | 114° |
| 2026-04-21 18:27 | 53.56259 | 10.14027 | 1501 ft | 114 kts | 112° |
| 2026-04-21 18:27 | 53.55866 | 10.15188 | 1486 ft | 117 kts | 118° |
| 2026-04-21 18:28 | 53.55189 | 10.16015 | 1494 ft | 120 kts | 141° |
| 2026-04-21 18:28 | 53.54474 | 10.16714 | 1538 ft | 117 kts | 141° |
| 2026-04-21 18:28 | 53.53792 | 10.17434 | 1510 ft | 117 kts | 138° |
| 2026-04-21 18:28 | 53.53108 | 10.18230 | 1469 ft | 120 kts | 136° |
| 2026-04-21 18:29 | 53.52461 | 10.19071 | 1451 ft | 117 kts | 132° |
| 2026-04-21 18:29 | 53.51855 | 10.19989 | 1445 ft | 118 kts | 127° |
| 2026-04-21 18:29 | 53.51278 | 10.20979 | 1489 ft | 117 kts | 125° |
| 2026-04-21 18:29 | 53.50724 | 10.21996 | 1495 ft | 118 kts | 122° |
| 2026-04-21 18:30 | 53.50180 | 10.22993 | 1493 ft | 114 kts | 127° |
| 2026-04-21 18:30 | 53.49600 | 10.23897 | 1495 ft | 115 kts | 131° |
| 2026-04-21 18:30 | 53.48986 | 10.24763 | 1495 ft | 115 kts | 133° |
| 2026-04-21 18:30 | 53.48352 | 10.25616 | 1496 ft | 115 kts | 133° |
| 2026-04-21 18:31 | 53.47738 | 10.26437 | 1496 ft | 116 kts | 133° |
| 2026-04-21 18:31 | 53.47100 | 10.27294 | 1492 ft | 112 kts | 132° |
| 2026-04-21 18:31 | 53.46502 | 10.28110 | 1497 ft | 111 kts | 132° |
| 2026-04-21 18:31 | 53.45902 | 10.28928 | 1495 ft | 111 kts | 133° |
| 2026-04-21 18:32 | 53.45273 | 10.29702 | 1492 ft | 111 kts | 137° |
| 2026-04-21 18:32 | 53.44614 | 10.30393 | 1493 ft | 112 kts | 141° |
| 2026-04-21 18:32 | 53.43926 | 10.31008 | 1493 ft | 112 kts | 145° |
| 2026-04-21 18:32 | 53.43192 | 10.31492 | 1474 ft | 116 kts | 161° |
| 2026-04-21 18:33 | 53.42405 | 10.31185 | 1484 ft | 119 kts | 199° |
| 2026-04-21 18:33 | 53.41748 | 10.30351 | 1526 ft | 121 kts | 217° |
| 2026-04-21 18:33 | 53.41174 | 10.29292 | 1523 ft | 123 kts | 223° |
| 2026-04-21 18:33 | 53.40624 | 10.28197 | 1574 ft | 120 kts | 223° |
| 2026-04-21 18:34 | 53.40084 | 10.27139 | 1673 ft | 117 kts | 223° |
| 2026-04-21 18:34 | 53.39561 | 10.26120 | 1794 ft | 116 kts | 222° |
| 2026-04-21 18:34 | 53.39022 | 10.25105 | 1908 ft | 115 kts | 221° |
| 2026-04-21 18:34 | 53.38469 | 10.24108 | 1996 ft | 117 kts | 219° |
| 2026-04-21 18:35 | 53.38095 | 10.23448 | 2015 ft | 120 kts | 219° |
| 2026-04-21 18:35 | 53.37318 | 10.22075 | 2014 ft | 123 kts | 219° |
| 2026-04-21 18:35 | 53.36715 | 10.21040 | 1980 ft | 124 kts | 217° |
| 2026-04-21 18:35 | 53.36104 | 10.20027 | 2003 ft | 122 kts | 218° |
| 2026-04-21 18:36 | 53.35503 | 10.18997 | 1996 ft | 123 kts | 217° |
| 2026-04-21 18:36 | 53.35090 | 10.18315 | 1999 ft | 123 kts | 217° |
| 2026-04-21 18:36 | 53.34479 | 10.17304 | 1990 ft | 126 kts | 219° |
| 2026-04-21 18:36 | 53.33909 | 10.16195 | 1995 ft | 126 kts | 225° |
| 2026-04-21 18:37 | 53.33381 | 10.15019 | 2014 ft | 125 kts | 226° |
| 2026-04-21 18:37 | 53.32845 | 10.13839 | 2005 ft | 127 kts | 225° |
| 2026-04-21 18:37 | 53.32307 | 10.12666 | 2008 ft | 126 kts | 226° |
| 2026-04-21 18:37 | 53.31786 | 10.11497 | 2010 ft | 124 kts | 226° |
| 2026-04-21 18:38 | 53.31227 | 10.10365 | 1984 ft | 126 kts | 222° |
| 2026-04-21 18:38 | 53.30654 | 10.09245 | 1975 ft | 125 kts | 222° |
| 2026-04-21 18:38 | 53.30079 | 10.08157 | 1960 ft | 125 kts | 220° |
| 2026-04-21 18:38 | 53.29488 | 10.07094 | 1955 ft | 124 kts | 220° |
| 2026-04-21 18:39 | 53.28890 | 10.06051 | 1958 ft | 124 kts | 218° |
| 2026-04-21 18:39 | 53.28258 | 10.05035 | 1937 ft | 125 kts | 216° |
| 2026-04-21 18:39 | 53.27640 | 10.04013 | 1940 ft | 124 kts | 218° |
| 2026-04-21 18:39 | 53.27027 | 10.02990 | 1933 ft | 125 kts | 219° |
| 2026-04-21 18:40 | 53.26426 | 10.01973 | 1981 ft | 121 kts | 216° |
| 2026-04-21 18:40 | 53.25755 | 10.01067 | 1951 ft | 124 kts | 205° |
| 2026-04-21 18:40 | 53.25251 | 10.00640 | 1970 ft | 120 kts | 194° |
| 2026-04-21 18:40 | 53.24208 | 10.00002 | 2001 ft | 119 kts | 190° |
| 2026-04-21 18:41 | 53.23416 | 9.99535 | 1995 ft | 120 kts | 192° |
| 2026-04-21 18:41 | 53.22644 | 9.98998 | 2011 ft | 121 kts | 195° |
| 2026-04-21 18:41 | 53.21871 | 9.98471 | 2013 ft | 120 kts | 192° |
| 2026-04-21 18:41 | 53.21085 | 9.97985 | 2020 ft | 120 kts | 191° |
| 2026-04-21 18:42 | 53.20308 | 9.97512 | 2066 ft | 118 kts | 192° |
| 2026-04-21 18:42 | 53.19517 | 9.97055 | 2050 ft | 119 kts | 188° |
| 2026-04-21 18:42 | 53.18706 | 9.96672 | 2021 ft | 121 kts | 185° |
| 2026-04-21 18:42 | 53.17881 | 9.96381 | 1988 ft | 121 kts | 181° |
| 2026-04-21 18:43 | 53.17071 | 9.96076 | 2013 ft | 119 kts | 185° |
| 2026-04-21 18:43 | 53.16267 | 9.95661 | 2014 ft | 120 kts | 191° |
| 2026-04-21 18:43 | 53.15478 | 9.95218 | 1994 ft | 122 kts | 189° |
| 2026-04-21 18:43 | 53.14676 | 9.94790 | 2006 ft | 120 kts | 189° |
| 2026-04-21 18:44 | 53.13891 | 9.94354 | 2023 ft | 119 kts | 190° |
| 2026-04-21 18:44 | 53.13100 | 9.93915 | 2023 ft | 120 kts | 189° |
| 2026-04-21 18:44 | 53.12312 | 9.93411 | 2034 ft | 121 kts | 194° |
| 2026-04-21 18:44 | 53.11528 | 9.92897 | 2014 ft | 122 kts | 192° |
| 2026-04-21 18:45 | 53.10731 | 9.92404 | 1990 ft | 122 kts | 192° |
| 2026-04-21 18:45 | 53.09941 | 9.91920 | 2007 ft | 119 kts | 191° |
| 2026-04-21 18:45 | 53.09162 | 9.91421 | 2013 ft | 121 kts | 198° |
| 2026-04-21 18:45 | 53.08344 | 9.90933 | 1985 ft | 126 kts | 192° |
| 2026-04-21 18:46 | 53.07499 | 9.90536 | 1988 ft | 126 kts | 191° |
| 2026-04-21 18:46 | 53.06664 | 9.90158 | 1986 ft | 126 kts | 191° |
| 2026-04-21 18:46 | 53.05825 | 9.89769 | 2006 ft | 125 kts | 191° |
| 2026-04-21 18:46 | 53.04984 | 9.89349 | 2005 ft | 125 kts | 192° |
| 2026-04-21 18:47 | 53.04125 | 9.89059 | 1989 ft | 125 kts | 182° |
| 2026-04-21 18:47 | 53.03257 | 9.88902 | 2003 ft | 125 kts | 182° |
| 2026-04-21 18:47 | 53.02405 | 9.88687 | 1997 ft | 126 kts | 189° |
| 2026-04-21 18:47 | 53.01840 | 9.87673 | 1916 ft | 122 kts | 260° |
| 2026-04-21 18:48 | 53.02117 | 9.86510 | 1968 ft | 110 kts | 313° |
| 2026-04-21 18:48 | 53.02600 | 9.85473 | 1954 ft | 114 kts | 308° |
| 2026-04-21 18:48 | 53.03096 | 9.84453 | 1974 ft | 111 kts | 310° |
| 2026-04-21 18:48 | 53.03736 | 9.83712 | 1899 ft | 111 kts | 334° |
| 2026-04-21 18:49 | 53.04436 | 9.83260 | 1964 ft | 106 kts | 338° |
| 2026-04-21 18:49 | 53.05014 | 9.82490 | 1970 ft | 111 kts | 308° |
| 2026-04-21 18:49 | 53.05322 | 9.81792 | 1955 ft | 113 kts | 306° |
| 2026-04-21 18:49 | 53.05924 | 9.80397 | 1966 ft | 111 kts | 312° |
| 2026-04-21 18:50 | 53.06486 | 9.79528 | 1974 ft | 108 kts | 320° |
| 2026-04-21 18:50 | 53.07064 | 9.78715 | 1987 ft | 109 kts | 321° |
| 2026-04-21 18:50 | 53.07649 | 9.77913 | 1996 ft | 110 kts | 321° |
| 2026-04-21 18:50 | 53.08239 | 9.77047 | 1970 ft | 112 kts | 317° |
| 2026-04-21 18:51 | 53.08776 | 9.76150 | 2003 ft | 110 kts | 315° |
| 2026-04-21 18:51 | 53.09305 | 9.75196 | 1992 ft | 115 kts | 314° |
| 2026-04-21 18:51 | 53.09882 | 9.74198 | 1942 ft | 123 kts | 314° |
| 2026-04-21 18:51 | 53.10464 | 9.73178 | 1979 ft | 119 kts | 315° |
| 2026-04-21 18:52 | 53.11043 | 9.72186 | 1983 ft | 120 kts | 314° |
| 2026-04-21 18:52 | 53.11621 | 9.71178 | 1992 ft | 121 kts | 314° |
| 2026-04-21 18:52 | 53.12215 | 9.70176 | 1994 ft | 121 kts | 316° |
| 2026-04-21 18:52 | 53.12805 | 9.69159 | 2002 ft | 121 kts | 314° |
| 2026-04-21 18:53 | 53.13426 | 9.68233 | 2003 ft | 120 kts | 322° |
| 2026-04-21 18:53 | 53.14097 | 9.67428 | 2007 ft | 119 kts | 328° |
| 2026-04-21 18:53 | 53.14814 | 9.66736 | 2013 ft | 118 kts | 333° |
| 2026-04-21 18:53 | 53.15505 | 9.65962 | 2002 ft | 121 kts | 324° |
| 2026-04-21 18:54 | 53.16157 | 9.65100 | 2015 ft | 120 kts | 322° |
| 2026-04-21 18:54 | 53.16813 | 9.64227 | 2019 ft | 120 kts | 323° |
| 2026-04-21 18:54 | 53.17469 | 9.63364 | 2019 ft | 121 kts | 321° |
| 2026-04-21 18:54 | 53.18105 | 9.62435 | 2002 ft | 122 kts | 320° |
| 2026-04-21 18:55 | 53.18520 | 9.61805 | 1995 ft | 122 kts | 316° |
| 2026-04-21 18:55 | 53.19292 | 9.60439 | 2012 ft | 121 kts | 314° |
| 2026-04-21 18:55 | 53.19865 | 9.59379 | 2001 ft | 123 kts | 310° |
| 2026-04-21 18:55 | 53.20407 | 9.58286 | 2013 ft | 122 kts | 309° |
| 2026-04-21 18:56 | 53.20892 | 9.57111 | 2001 ft | 124 kts | 302° |
| 2026-04-21 18:56 | 53.21317 | 9.55856 | 2002 ft | 124 kts | 297° |
| 2026-04-21 18:56 | 53.21675 | 9.54531 | 2003 ft | 125 kts | 292° |
| 2026-04-21 18:56 | 53.21985 | 9.53166 | 2000 ft | 125 kts | 289° |
| 2026-04-21 18:57 | 53.22302 | 9.51806 | 2012 ft | 124 kts | 290° |
| 2026-04-21 18:57 | 53.22612 | 9.50462 | 2005 ft | 125 kts | 292° |
| 2026-04-21 18:57 | 53.22994 | 9.49166 | 2009 ft | 124 kts | 297° |
| 2026-04-21 18:57 | 53.23409 | 9.47882 | 2010 ft | 124 kts | 298° |
| 2026-04-21 18:58 | 53.23801 | 9.46604 | 2015 ft | 124 kts | 296° |
| 2026-04-21 18:58 | 53.24169 | 9.45291 | 2013 ft | 125 kts | 294° |
| 2026-04-21 18:58 | 53.24533 | 9.43975 | 2016 ft | 124 kts | 295° |
| 2026-04-21 18:58 | 53.24909 | 9.42667 | 2019 ft | 124 kts | 295° |
| 2026-04-21 18:59 | 53.25309 | 9.41380 | 2018 ft | 124 kts | 299° |
| 2026-04-21 18:59 | 53.25735 | 9.40127 | 2007 ft | 125 kts | 300° |
| 2026-04-21 18:59 | 53.26162 | 9.38847 | 1940 ft | 127 kts | 298° |
| 2026-04-21 18:59 | 53.26603 | 9.37547 | 1905 ft | 126 kts | 299° |
| 2026-04-21 19:00 | 53.27014 | 9.36269 | 1918 ft | 124 kts | 298° |
| 2026-04-21 19:00 | 53.27443 | 9.35027 | 1927 ft | 124 kts | 301° |
| 2026-04-21 19:00 | 53.27826 | 9.33879 | 1935 ft | 125 kts | 298° |
| 2026-04-21 19:00 | 53.28200 | 9.32697 | 1936 ft | 125 kts | 297° |
| 2026-04-21 19:01 | 53.28556 | 9.31583 | 1951 ft | 124 kts | 298° |
| 2026-04-21 19:01 | 53.28922 | 9.30475 | 1986 ft | 123 kts | 298° |
| 2026-04-21 19:01 | 53.29313 | 9.29240 | 2014 ft | 124 kts | 296° |
| 2026-04-21 19:01 | 53.29590 | 9.27831 | 1965 ft | 130 kts | 276° |
| 2026-04-21 19:02 | 53.29738 | 9.26388 | 2004 ft | 125 kts | 281° |
| 2026-04-21 19:02 | 53.29941 | 9.24948 | 1984 ft | 127 kts | 281° |
| 2026-04-21 19:02 | 53.30157 | 9.23500 | 1969 ft | 127 kts | 283° |
| 2026-04-21 19:02 | 53.30368 | 9.22061 | 1962 ft | 127 kts | 281° |
| 2026-04-21 19:03 | 53.30547 | 9.20619 | 1988 ft | 125 kts | 279° |
| 2026-04-21 19:03 | 53.30721 | 9.19184 | 1993 ft | 126 kts | 280° |
| 2026-04-21 19:03 | 53.30901 | 9.17756 | 2008 ft | 125 kts | 281° |
| 2026-04-21 19:03 | 53.31092 | 9.16318 | 2016 ft | 125 kts | 281° |
| 2026-04-21 19:04 | 53.31281 | 9.14903 | 2023 ft | 125 kts | 281° |
| 2026-04-21 19:04 | 53.31445 | 9.13459 | 2030 ft | 126 kts | 278° |
| 2026-04-21 19:04 | 53.31584 | 9.12011 | 2019 ft | 126 kts | 276° |
| 2026-04-21 19:04 | 53.31716 | 9.10552 | 2030 ft | 126 kts | 276° |
| 2026-04-21 19:05 | 53.31869 | 9.09085 | 1994 ft | 126 kts | 279° |
| 2026-04-21 19:05 | 53.32105 | 9.07684 | 2014 ft | 125 kts | 287° |
| 2026-04-21 19:05 | 53.32378 | 9.06291 | 2012 ft | 125 kts | 288° |
| 2026-04-21 19:05 | 53.32684 | 9.04946 | 2009 ft | 125 kts | 290° |
| 2026-04-21 19:06 | 53.33009 | 9.03585 | 2020 ft | 124 kts | 290° |
| 2026-04-21 19:06 | 53.33366 | 9.02320 | 2003 ft | 117 kts | 305° |
| 2026-04-21 19:06 | 53.33834 | 9.01237 | 2031 ft | 114 kts | 303° |
| 2026-04-21 19:06 | 53.34304 | 9.00161 | 2024 ft | 115 kts | 302° |
| 2026-04-21 19:07 | 53.34786 | 8.99079 | 1998 ft | 116 kts | 304° |
| 2026-04-21 19:07 | 53.35276 | 8.98000 | 1983 ft | 115 kts | 301° |
| 2026-04-21 19:07 | 53.35735 | 8.96892 | 1988 ft | 117 kts | 301° |
| 2026-04-21 19:07 | 53.36197 | 8.95753 | 2002 ft | 117 kts | 301° |
| 2026-04-21 19:08 | 53.36652 | 8.94630 | 2020 ft | 116 kts | 300° |
| 2026-04-21 19:08 | 53.37107 | 8.93494 | 2013 ft | 117 kts | 300° |
| 2026-04-21 19:08 | 53.37552 | 8.92368 | 2037 ft | 116 kts | 299° |
| 2026-04-21 19:08 | 53.38001 | 8.91217 | 2043 ft | 117 kts | 298° |
| 2026-04-21 19:09 | 53.38425 | 8.90057 | 2029 ft | 118 kts | 298° |
| 2026-04-21 19:09 | 53.38856 | 8.88880 | 1999 ft | 120 kts | 298° |
| 2026-04-21 19:09 | 53.39299 | 8.87711 | 2005 ft | 117 kts | 299° |
| 2026-04-21 19:09 | 53.39728 | 8.86562 | 2061 ft | 115 kts | 298° |
| 2026-04-21 19:10 | 53.40151 | 8.85411 | 2052 ft | 118 kts | 297° |
| 2026-04-21 19:10 | 53.40567 | 8.84220 | 2025 ft | 119 kts | 296° |
| 2026-04-21 19:10 | 53.40971 | 8.83005 | 2046 ft | 116 kts | 300° |
| 2026-04-21 19:10 | 53.41412 | 8.81875 | 2059 ft | 117 kts | 298° |
| 2026-04-21 19:11 | 53.41852 | 8.80715 | 2064 ft | 117 kts | 301° |
| 2026-04-21 19:11 | 53.42381 | 8.79689 | 2064 ft | 117 kts | 309° |
| 2026-04-21 19:11 | 53.42936 | 8.78675 | 2057 ft | 118 kts | 308° |
| 2026-04-21 19:11 | 53.43488 | 8.77631 | 2027 ft | 120 kts | 307° |
| 2026-04-21 19:12 | 53.43972 | 8.76518 | 2049 ft | 116 kts | 300° |
| 2026-04-21 19:12 | 53.44407 | 8.75372 | 2067 ft | 117 kts | 297° |
| 2026-04-21 19:12 | 53.44817 | 8.74202 | 2072 ft | 117 kts | 296° |
| 2026-04-21 19:12 | 53.45234 | 8.73008 | 2067 ft | 118 kts | 297° |
| 2026-04-21 19:13 | 53.45664 | 8.71846 | 2089 ft | 116 kts | 299° |
| 2026-04-21 19:13 | 53.46107 | 8.70699 | 2063 ft | 119 kts | 299° |
| 2026-04-21 19:13 | 53.46562 | 8.69508 | 1985 ft | 121 kts | 298° |
| 2026-04-21 19:13 | 53.47009 | 8.68345 | 2008 ft | 117 kts | 300° |
| 2026-04-21 19:14 | 53.47469 | 8.67216 | 2008 ft | 118 kts | 300° |
| 2026-04-21 19:14 | 53.47917 | 8.66051 | 1989 ft | 118 kts | 298° |
| 2026-04-21 19:14 | 53.48334 | 8.64856 | 1965 ft | 119 kts | 296° |
| 2026-04-21 19:14 | 53.48749 | 8.63641 | 1953 ft | 118 kts | 296° |
| 2026-04-21 19:15 | 53.49183 | 8.62471 | 1958 ft | 118 kts | 298° |
| 2026-04-21 19:15 | 53.49622 | 8.61347 | 2006 ft | 115 kts | 302° |
| 2026-04-21 19:15 | 53.50129 | 8.60271 | 2011 ft | 116 kts | 307° |
| 2026-04-21 19:15 | 53.50675 | 8.59275 | 2034 ft | 116 kts | 311° |
| 2026-04-21 19:16 | 53.51245 | 8.58309 | 2049 ft | 116 kts | 311° |
| 2026-04-21 19:16 | 53.51815 | 8.57302 | 2028 ft | 118 kts | 309° |
| 2026-04-21 19:16 | 53.52378 | 8.56301 | 2008 ft | 119 kts | 310° |
| 2026-04-21 19:16 | 53.52983 | 8.55357 | 2040 ft | 116 kts | 315° |
| 2026-04-21 19:17 | 53.54505 | 8.54656 | 1935 ft | 121 kts | 6° |
| 2026-04-21 19:17 | 53.55313 | 8.55066 | 1861 ft | 121 kts | 16° |
| 2026-04-21 19:17 | 53.56119 | 8.55532 | 1771 ft | 123 kts | 13° |
| 2026-04-21 19:18 | 53.56941 | 8.55924 | 1655 ft | 125 kts | 11° |
| 2026-04-21 19:18 | 53.57775 | 8.56319 | 1583 ft | 122 kts | 13° |
| 2026-04-21 19:18 | 53.58581 | 8.56791 | 1519 ft | 122 kts | 17° |
| 2026-04-21 19:18 | 53.59336 | 8.57398 | 1496 ft | 119 kts | 26° |
| 2026-04-21 19:19 | 53.60014 | 8.58198 | 1495 ft | 118 kts | 34° |
| 2026-04-21 19:19 | 53.60646 | 8.59091 | 1497 ft | 118 kts | 38° |
| 2026-04-21 19:19 | 53.61273 | 8.60000 | 1503 ft | 117 kts | 35° |
| 2026-04-21 19:19 | 53.61955 | 8.60760 | 1500 ft | 118 kts | 29° |
| 2026-04-21 19:20 | 53.62632 | 8.61559 | 1501 ft | 118 kts | 31° |
| 2026-04-21 19:20 | 53.63322 | 8.62323 | 1501 ft | 118 kts | 28° |
| 2026-04-21 19:20 | 53.64018 | 8.63068 | 1500 ft | 118 kts | 29° |
| 2026-04-21 19:20 | 53.64717 | 8.63781 | 1503 ft | 118 kts | 26° |
| 2026-04-21 19:21 | 53.65412 | 8.64537 | 1499 ft | 118 kts | 30° |
| 2026-04-21 19:21 | 53.66100 | 8.65298 | 1501 ft | 118 kts | 28° |
| 2026-04-21 19:21 | 53.66818 | 8.65981 | 1504 ft | 118 kts | 24° |
| 2026-04-21 19:21 | 53.67509 | 8.66720 | 1488 ft | 118 kts | 35° |
| 2026-04-21 19:22 | 53.68005 | 8.67819 | 1471 ft | 118 kts | 62° |
| 2026-04-21 19:22 | 53.68263 | 8.69125 | 1497 ft | 117 kts | 69° |
| 2026-04-21 19:22 | 53.68504 | 8.70451 | 1498 ft | 118 kts | 70° |
| 2026-04-21 19:22 | 53.68736 | 8.71778 | 1499 ft | 118 kts | 70° |
| 2026-04-21 19:23 | 53.68964 | 8.73126 | 1499 ft | 118 kts | 71° |
| 2026-04-21 19:23 | 53.69182 | 8.74462 | 1499 ft | 118 kts | 71° |
| 2026-04-21 19:23 | 53.69394 | 8.75793 | 1500 ft | 118 kts | 71° |
| 2026-04-21 19:23 | 53.69605 | 8.77152 | 1500 ft | 118 kts | 72° |
| 2026-04-21 19:24 | 53.69806 | 8.78493 | 1500 ft | 118 kts | 72° |
| 2026-04-21 19:24 | 53.70017 | 8.79841 | 1500 ft | 118 kts | 71° |
| 2026-04-21 19:24 | 53.70236 | 8.81179 | 1501 ft | 118 kts | 70° |
| 2026-04-21 19:24 | 53.70462 | 8.82509 | 1501 ft | 118 kts | 70° |
| 2026-04-21 19:25 | 53.70697 | 8.83845 | 1501 ft | 118 kts | 69° |
| 2026-04-21 19:25 | 53.70940 | 8.85182 | 1500 ft | 118 kts | 69° |
| 2026-04-21 19:25 | 53.71187 | 8.86500 | 1500 ft | 118 kts | 68° |
| 2026-04-21 19:25 | 53.71444 | 8.87829 | 1500 ft | 118 kts | 68° |
| 2026-04-21 19:26 | 53.71708 | 8.89144 | 1500 ft | 118 kts | 67° |
| 2026-04-21 19:26 | 53.71980 | 8.90441 | 1501 ft | 118 kts | 66° |
| 2026-04-21 19:26 | 53.72267 | 8.91753 | 1500 ft | 118 kts | 66° |
| 2026-04-21 19:26 | 53.72561 | 8.93046 | 1500 ft | 118 kts | 65° |
| 2026-04-21 19:27 | 53.72891 | 8.94336 | 1501 ft | 118 kts | 62° |
| 2026-04-21 19:27 | 53.73225 | 8.95589 | 1500 ft | 118 kts | 62° |
| 2026-04-21 19:27 | 53.73564 | 8.96862 | 1500 ft | 118 kts | 62° |
| 2026-04-21 19:27 | 53.73902 | 8.98129 | 1500 ft | 118 kts | 62° |
| 2026-04-21 19:28 | 53.74240 | 8.99405 | 1499 ft | 118 kts | 62° |
| 2026-04-21 19:28 | 53.74556 | 9.00698 | 1500 ft | 118 kts | 64° |
| 2026-04-21 19:28 | 53.74864 | 9.01974 | 1500 ft | 118 kts | 64° |
| 2026-04-21 19:28 | 53.75178 | 9.03275 | 1500 ft | 118 kts | 64° |
| 2026-04-21 19:29 | 53.75486 | 9.04550 | 1500 ft | 118 kts | 64° |
| 2026-04-21 19:29 | 53.75798 | 9.05839 | 1500 ft | 118 kts | 64° |
| 2026-04-21 19:29 | 53.76109 | 9.07126 | 1500 ft | 118 kts | 64° |
| 2026-04-21 19:29 | 53.76423 | 9.08426 | 1500 ft | 118 kts | 64° |
| 2026-04-21 19:30 | 53.76733 | 9.09713 | 1500 ft | 118 kts | 64° |
| 2026-04-21 19:30 | 53.77043 | 9.10997 | 1500 ft | 118 kts | 64° |
| 2026-04-21 19:30 | 53.77354 | 9.12285 | 1500 ft | 118 kts | 64° |
| 2026-04-21 19:30 | 53.77664 | 9.13571 | 1500 ft | 118 kts | 64° |
| 2026-04-21 19:31 | 53.77978 | 9.14875 | 1500 ft | 118 kts | 64° |
| 2026-04-21 19:31 | 53.78288 | 9.16162 | 1500 ft | 118 kts | 64° |
| 2026-04-21 19:31 | 53.78597 | 9.17445 | 1500 ft | 118 kts | 64° |
| 2026-04-21 19:31 | 53.78909 | 9.18739 | 1500 ft | 118 kts | 64° |
| 2026-04-21 19:32 | 53.79222 | 9.20039 | 1500 ft | 118 kts | 64° |
| 2026-04-21 19:32 | 53.79525 | 9.21335 | 1495 ft | 118 kts | 67° |
| 2026-04-21 19:32 | 53.79797 | 9.22660 | 1500 ft | 118 kts | 67° |
| 2026-04-21 19:32 | 53.80066 | 9.23972 | 1499 ft | 118 kts | 67° |
| 2026-04-21 19:33 | 53.80203 | 9.24881 | 1495 ft | 118 kts | 73° |
| 2026-04-21 19:33 | 53.80453 | 9.26693 | 1499 ft | 118 kts | 73° |
| 2026-04-21 19:33 | 53.80641 | 9.28056 | 1500 ft | 118 kts | 73° |
| 2026-04-21 19:33 | 53.80827 | 9.29409 | 1500 ft | 118 kts | 72° |
| 2026-04-21 19:34 | 53.81014 | 9.30761 | 1500 ft | 118 kts | 72° |
| 2026-04-21 19:34 | 53.81101 | 9.32149 | 1495 ft | 118 kts | 83° |
| 2026-04-21 19:34 | 53.81047 | 9.33531 | 1489 ft | 118 kts | 95° |
| 2026-04-21 19:34 | 53.80812 | 9.34868 | 1487 ft | 118 kts | 108° |
| 2026-04-21 19:35 | 53.80411 | 9.36076 | 1492 ft | 118 kts | 119° |
| 2026-04-21 19:35 | 53.79385 | 9.38255 | 1496 ft | 118 kts | 129° |
| 2026-04-21 19:35 | 53.78807 | 9.39224 | 1488 ft | 115 kts | 131° |
| 2026-04-21 19:36 | 53.78236 | 9.40163 | 1501 ft | 113 kts | 130° |
| 2026-04-21 19:36 | 53.77679 | 9.41108 | 1499 ft | 113 kts | 130° |
| 2026-04-21 19:36 | 53.77111 | 9.42032 | 1497 ft | 113 kts | 133° |
| 2026-04-21 19:36 | 53.76541 | 9.42931 | 1501 ft | 113 kts | 131° |
| 2026-04-21 19:37 | 53.75976 | 9.43866 | 1500 ft | 113 kts | 131° |
| 2026-04-21 19:37 | 53.75416 | 9.44798 | 1500 ft | 113 kts | 131° |
| 2026-04-21 19:37 | 53.74851 | 9.45744 | 1500 ft | 113 kts | 130° |
| 2026-04-21 19:37 | 53.74291 | 9.46686 | 1500 ft | 113 kts | 130° |
| 2026-04-21 19:38 | 53.73732 | 9.47628 | 1500 ft | 113 kts | 130° |
| 2026-04-21 19:38 | 53.73182 | 9.48560 | 1499 ft | 113 kts | 130° |
| 2026-04-21 19:38 | 53.72624 | 9.49511 | 1500 ft | 113 kts | 130° |
| 2026-04-21 19:38 | 53.72068 | 9.50463 | 1500 ft | 113 kts | 130° |
| 2026-04-21 19:39 | 53.71516 | 9.51396 | 1496 ft | 113 kts | 131° |
| 2026-04-21 19:39 | 53.70918 | 9.52265 | 1495 ft | 113 kts | 137° |
| 2026-04-21 19:39 | 53.70271 | 9.53041 | 1495 ft | 113 kts | 142° |
| 2026-04-21 19:39 | 53.69594 | 9.53703 | 1494 ft | 113 kts | 147° |
| 2026-04-21 19:40 | 53.68878 | 9.54261 | 1495 ft | 113 kts | 153° |
| 2026-04-21 19:40 | 53.68158 | 9.54775 | 1500 ft | 113 kts | 152° |
| 2026-04-21 19:40 | 53.67434 | 9.55316 | 1500 ft | 113 kts | 151° |
| 2026-04-21 19:40 | 53.66723 | 9.55879 | 1501 ft | 113 kts | 149° |
| 2026-04-21 19:41 | 53.66024 | 9.56475 | 1500 ft | 113 kts | 148° |
| 2026-04-21 19:41 | 53.65331 | 9.57107 | 1502 ft | 113 kts | 145° |
| 2026-04-21 19:41 | 53.64656 | 9.57811 | 1502 ft | 113 kts | 142° |
| 2026-04-21 19:41 | 53.64008 | 9.58570 | 1502 ft | 113 kts | 139° |
| 2026-04-21 19:42 | 53.63393 | 9.59373 | 1502 ft | 113 kts | 136° |
| 2026-04-21 19:42 | 53.62783 | 9.60241 | 1500 ft | 113 kts | 135° |
| 2026-04-21 19:42 | 53.62184 | 9.61116 | 1500 ft | 113 kts | 134° |
| 2026-04-21 19:42 | 53.61592 | 9.62001 | 1500 ft | 113 kts | 133° |
| 2026-04-21 19:43 | 53.61008 | 9.62897 | 1501 ft | 113 kts | 132° |
| 2026-04-21 19:43 | 53.60458 | 9.63828 | 1502 ft | 113 kts | 129° |
| 2026-04-21 19:43 | 53.59919 | 9.64813 | 1498 ft | 113 kts | 129° |
| 2026-04-21 19:43 | 53.59346 | 9.65661 | 1490 ft | 113 kts | 139° |
| 2026-04-21 19:44 | 53.58699 | 9.66421 | 1500 ft | 113 kts | 140° |
| 2026-04-21 19:44 | 53.58073 | 9.67236 | 1503 ft | 113 kts | 136° |
| 2026-04-21 19:44 | 53.57514 | 9.68157 | 1505 ft | 113 kts | 128° |
| 2026-04-21 19:44 | 53.57021 | 9.69200 | 1505 ft | 113 kts | 121° |
| 2026-04-21 19:45 | 53.56603 | 9.70329 | 1505 ft | 113 kts | 115° |
| 2026-04-21 19:45 | 53.56272 | 9.71523 | 1505 ft | 113 kts | 108° |
| 2026-04-21 19:45 | 53.56010 | 9.72798 | 1503 ft | 113 kts | 103° |
| 2026-04-21 19:45 | 53.55806 | 9.74084 | 1503 ft | 113 kts | 99° |
| 2026-04-21 19:46 | 53.55636 | 9.75378 | 1501 ft | 113 kts | 97° |
| 2026-04-21 19:46 | 53.55481 | 9.76680 | 1500 ft | 113 kts | 97° |
| 2026-04-21 19:46 | 53.55323 | 9.77991 | 1499 ft | 113 kts | 97° |
| 2026-04-21 19:46 | 53.55156 | 9.79286 | 1499 ft | 113 kts | 98° |
| 2026-04-21 19:47 | 53.54975 | 9.80578 | 1499 ft | 113 kts | 99° |
| 2026-04-21 19:47 | 53.54783 | 9.81863 | 1498 ft | 113 kts | 100° |
| 2026-04-21 19:47 | 53.54576 | 9.83152 | 1499 ft | 113 kts | 101° |
| 2026-04-21 19:47 | 53.54452 | 9.84451 | 1510 ft | 113 kts | 88° |
| 2026-04-21 19:48 | 53.54588 | 9.85740 | 1516 ft | 113 kts | 64° |
| 2026-04-21 19:48 | 53.54975 | 9.86847 | 1505 ft | 106 kts | 51° |
| 2026-04-21 19:48 | 53.55389 | 9.87867 | 1511 ft | 104 kts | 49° |
| 2026-04-21 19:48 | 53.55825 | 9.88832 | 1507 ft | 104 kts | 47° |
| 2026-04-21 19:49 | 53.56276 | 9.89757 | 1473 ft | 100 kts | 44° |
| 2026-04-21 19:49 | 53.56732 | 9.90631 | 1439 ft | 97 kts | 47° |
| 2026-04-21 19:49 | 53.57151 | 9.91501 | 1370 ft | 96 kts | 49° |
| 2026-04-21 19:49 | 53.57569 | 9.92351 | 1310 ft | 93 kts | 45° |
| 2026-04-21 19:50 | 53.57837 | 9.92904 | 1280 ft | 91 kts | 51° |
| 2026-04-21 19:50 | 53.58360 | 9.93979 | 1209 ft | 87 kts | 48° |
| 2026-04-21 19:50 | 53.58730 | 9.94749 | 1141 ft | 83 kts | 48° |
| 2026-04-21 19:50 | 53.59076 | 9.95480 | 1070 ft | 76 kts | 49° |
| 2026-04-21 19:51 | 53.59410 | 9.96194 | 1050 ft | 78 kts | 52° |
| 2026-04-21 19:51 | 53.59733 | 9.96945 | 1018 ft | 79 kts | 50° |
| 2026-04-21 19:51 | 53.60112 | 9.97607 | 962 ft | 76 kts | 28° |
| 2026-04-21 19:51 | 53.60550 | 9.97926 | 897 ft | 63 kts | 6° |
| 2026-04-21 19:52 | 53.60961 | 9.98023 | 777 ft | 58 kts | 8° |
| 2026-04-21 19:52 | 53.61356 | 9.98105 | 653 ft | 56 kts | 8° |
| 2026-04-21 19:52 | 53.61726 | 9.98169 | 515 ft | 53 kts | 11° |
| 2026-04-21 19:52 | 53.62075 | 9.98253 | 370 ft | 46 kts | 13° |
| 2026-04-21 19:53 | 53.62340 | 9.98329 | 245 ft | 30 kts | 18° |
| 2026-04-21 19:53 | 53.62501 | 9.98461 | 119 ft | 27 kts | 74° |
| 2026-04-21 19:53 | 53.62523 | 9.98755 | 72 ft | 23 kts | 78° |
| 2026-04-21 19:53 | 53.62553 | 9.99013 | 65 ft | 21 kts | 80° |
| 2026-04-21 19:54 | 53.62575 | 9.99214 | 62 ft | 14 kts | 79° |
| 2026-04-21 19:54 | 53.62578 | 9.99333 | 62 ft | 8 kts | 163° |
| 2026-04-21 19:54 | 53.62544 | 9.99380 | 60 ft | 3 kts | 76° |
| 2026-04-21 19:54 | 53.62548 | 9.99388 | 58 ft | 0 kts | 85° |
| 2026-04-21 19:55 | 53.62547 | 9.99388 | 58 ft | 0 kts | 83° |